Time;durP1;ratioP1;P1;durP2;ratioP2;P2;SDS_P1;SDS_P2;PMS_P1;PMS_P2;Temp;Humidity;BMP_temperature;BMP_pressure;BME280_temperature;BME280_humidity;BME280_pressure;Samples;Min_cycle;Max_cycle;Signal;HPM_P1;HPM_P2
2022/01/14 00:00:50;;;;;;;0.10;0.10;;;;;;;7.49;40.43;100844.06;5080930;23;20238;-80
2022/01/14 00:03:19;;;;;;;0.20;0.20;;;;;;;7.75;40.53;100846.47;5100089;22;20229;-79
2022/01/14 00:06:06;;;;;;;0.53;0.20;;;;;;;7.79;40.89;100847.00;5021625;28;20611;-79
2022/01/14 00:09:01;;;;;;;0.20;0.20;;;;;;;7.91;40.51;100845.59;5050240;23;20223;-80
2022/01/14 00:12:36;;;;;;;0.30;0.30;;;;;;;8.07;40.17;100840.16;5111208;23;20302;-79
2022/01/14 00:15:25;;;;;;;0.20;0.20;;;;;;;8.16;39.75;100843.66;5062401;23;20230;-80
2022/01/14 00:18:18;;;;;;;0.50;0.27;;;;;;;8.09;40.35;100846.19;5067530;23;20220;-79
2022/01/14 00:20:53;;;;;;;0.30;0.20;;;;;;;7.90;40.31;100833.25;5060477;23;20229;31
2022/01/14 00:24:06;;;;;;;0.20;0.20;;;;;;;7.93;40.73;100852.41;5003618;23;20245;-79
2022/01/14 00:33:08;;;;;;;0.33;0.30;;;;;;;7.94;40.33;100848.75;5032518;23;20239;-79
2022/01/14 00:35:51;;;;;;;0.50;0.30;;;;;;;7.76;41.11;100833.97;5005360;28;20188;-79
2022/01/14 00:38:31;;;;;;;0.20;0.20;;;;;;;7.91;41.29;100833.09;5011670;23;20278;-80
2022/01/14 00:41:39;;;;;;;0.20;0.10;;;;;;;7.83;41.58;100822.47;5049773;23;20243;-79
2022/01/14 00:44:18;;;;;;;0.20;0.10;;;;;;;7.72;41.70;100822.81;5082168;23;20233;-80
2022/01/14 00:46:54;;;;;;;0.20;0.20;;;;;;;7.80;42.18;100824.63;5144634;23;20233;-80
2022/01/14 00:49:21;;;;;;;0.10;0.10;;;;;;;7.85;41.86;100824.94;5056461;23;20309;-79
2022/01/14 00:52:08;;;;;;;0.30;0.30;;;;;;;7.78;41.98;100814.13;5058542;23;20248;-79
2022/01/14 00:55:25;;;;;;;0.23;0.23;;;;;;;7.84;41.98;100824.09;5093525;23;20259;-80
2022/01/14 01:00:40;;;;;;;0.23;0.10;;;;;;;8.06;41.94;100813.69;5058922;28;20256;-79
2022/01/14 01:03:41;;;;;;;0.10;0.10;;;;;;;8.01;41.34;100813.38;5075966;28;20211;-80
2022/01/14 01:06:35;;;;;;;0.30;0.20;;;;;;;8.00;41.46;100798.34;5088858;23;20222;-80
2022/01/14 01:09:26;;;;;;;0.10;0.10;;;;;;;8.17;40.54;100815.94;5068786;23;20233;-79
2022/01/14 01:12:42;;;;;;;0.30;0.30;;;;;;;8.28;40.15;100828.91;5083345;23;20304;-80
2022/01/14 01:15:25;;;;;;;0.10;0.10;;;;;;;8.32;39.39;100792.84;5105684;23;20240;-80
2022/01/14 01:18:59;;;;;;;0.10;0.10;;;;;;;8.42;39.43;100800.63;5076483;22;20236;-79
2022/01/14 01:21:25;;;;;;;0.10;0.10;;;;;;;8.36;39.48;100794.16;5090388;23;20235;-80
2022/01/14 01:23:58;;;;;;;0.40;0.27;;;;;;;8.44;39.66;100777.28;5071008;23;20738;-80
2022/01/14 01:26:51;;;;;;;0.20;0.20;;;;;;;8.27;40.07;100785.34;5084591;23;20226;-79
2022/01/14 01:29:47;;;;;;;0.10;0.10;;;;;;;8.16;39.82;100771.59;5044957;23;20213;-80
2022/01/14 01:32:38;;;;;;;0.30;0.10;;;;;;;8.12;40.31;100784.44;5061452;23;20249;-80
2022/01/14 01:35:34;;;;;;;0.37;0.20;;;;;;;7.95;40.51;100772.19;5059086;23;20213;-79
2022/01/14 01:38:34;;;;;;;0.47;0.20;;;;;;;8.06;41.63;100781.66;5081180;23;20223;-80
2022/01/14 01:41:26;;;;;;;0.20;0.10;;;;;;;7.96;42.05;100774.69;5105566;23;20227;-80
2022/01/14 01:44:00;;;;;;;0.30;0.20;;;;;;;7.99;42.60;100768.16;5090171;23;20209;-80
2022/01/14 01:47:15;;;;;;;0.50;0.20;;;;;;;8.01;42.66;100771.50;5055008;28;20213;-80
2022/01/14 01:49:49;;;;;;;0.30;0.20;;;;;;;7.91;43.62;100755.69;5081162;23;20236;-80
2022/01/14 01:52:21;;;;;;;0.30;0.10;;;;;;;7.93;43.53;100761.69;5071521;23;20221;-80
2022/01/14 01:54:52;;;;;;;0.17;0.13;;;;;;;7.83;44.20;100739.75;5052876;23;20234;-79
2022/01/14 01:57:57;;;;;;;0.20;0.20;;;;;;;7.97;44.33;100751.50;5037631;28;20198;-80
2022/01/14 02:00:35;;;;;;;0.67;0.17;;;;;;;7.81;44.89;100740.91;5067774;23;20269;-81
2022/01/14 02:03:35;;;;;;;0.10;0.10;;;;;;;7.69;45.50;100731.66;5076537;23;20264;-80
2022/01/14 02:06:04;;;;;;;0.40;0.20;;;;;;;7.92;45.32;100743.19;5208341;22;20247;-80
2022/01/14 02:08:51;;;;;;;0.20;0.20;;;;;;;7.89;45.49;100731.03;5092575;22;20236;-79
2022/01/14 02:12:08;;;;;;;0.20;0.20;;;;;;;7.86;46.42;100728.72;5047626;23;20237;-80
2022/01/14 02:15:09;;;;;;;0.20;0.20;;;;;;;7.70;47.14;100727.97;5050496;23;20261;-80
2022/01/14 02:23:27;;;;;;;0.20;0.20;;;;;;;7.60;47.92;100706.03;5057937;23;20233;-80
2022/01/14 02:26:07;;;;;;;1.10;0.30;;;;;;;7.62;48.13;100714.66;5065290;23;20225;-80
2022/01/14 02:28:54;;;;;;;0.20;0.20;;;;;;;7.62;48.32;100709.31;5059989;28;20265;-80
2022/01/14 02:31:29;;;;;;;0.23;0.10;;;;;;;7.67;48.04;100699.81;5056236;23;20255;-80
2022/01/14 02:33:57;;;;;;;0.20;0.20;;;;;;;7.69;48.09;100712.97;5052494;23;20217;-80
2022/01/14 02:36:53;;;;;;;0.10;0.10;;;;;;;7.83;47.53;100710.41;5090371;23;20259;-80
2022/01/14 02:39:48;;;;;;;0.13;0.13;;;;;;;7.86;47.32;100709.19;5065820;23;20230;-80
2022/01/14 02:42:21;;;;;;;0.67;0.30;;;;;;;7.75;46.75;100707.75;5128912;23;20293;-80
2022/01/14 02:45:01;;;;;;;0.50;0.10;;;;;;;7.94;46.63;100723.31;5020797;28;20265;-80
2022/01/14 02:47:53;;;;;;;0.10;0.10;;;;;;;7.86;46.75;100701.19;5055197;28;20202;-80
2022/01/14 02:50:24;;;;;;;0.10;0.10;;;;;;;7.79;46.96;100711.72;5048541;28;20201;-80
2022/01/14 02:56:32;;;;;;;0.20;0.20;;;;;;;8.02;45.08;100700.28;5091593;23;20211;-80
2022/01/14 03:00:31;;;;;;;0.10;0.10;;;;;;;8.03;44.00;100707.25;5080513;23;20202;-80
2022/01/14 03:03:45;;;;;;;0.20;0.20;;;;;;;8.05;43.71;100711.41;5074438;28;20640;-80
2022/01/14 03:06:32;;;;;;;0.37;0.10;;;;;;;7.95;44.49;100713.47;5075009;28;20240;-80
2022/01/14 03:09:18;;;;;;;0.77;0.20;;;;;;;7.97;43.75;100714.16;5060688;23;20261;-80
2022/01/14 03:12:16;;;;;;;0.30;0.30;;;;;;;7.84;44.47;100711.19;5052308;23;20283;-81
2022/01/14 03:15:31;;;;;;;0.30;0.20;;;;;;;7.78;45.28;100712.75;5087192;23;20226;-79
2022/01/14 03:18:03;;;;;;;0.30;0.30;;;;;;;7.85;46.71;100703.03;5058827;23;20230;-80
2022/01/14 03:21:03;;;;;;;0.10;0.10;;;;;;;7.91;47.23;100698.84;5085452;23;20245;-79
2022/01/14 03:23:25;;;;;;;0.47;0.20;;;;;;;7.69;48.29;100695.13;5087023;23;20296;-80
2022/01/14 03:26:08;;;;;;;0.73;0.27;;;;;;;7.45;49.27;100687.25;5050957;28;20225;-80
2022/01/14 03:28:48;;;;;;;0.33;0.20;;;;;;;7.30;50.07;100687.16;5084806;23;20532;-80
2022/01/14 03:31:16;;;;;;;0.43;0.20;;;;;;;7.26;50.59;100701.81;5026650;23;20214;-80
2022/01/14 03:33:44;;;;;;;0.30;0.20;;;;;;;7.31;50.64;100696.81;5079625;23;20237;-80
2022/01/14 03:36:39;;;;;;;0.27;0.20;;;;;;;7.07;51.24;100680.91;5080594;23;20232;-80
2022/01/14 03:39:49;;;;;;;0.43;0.33;;;;;;;7.14;51.75;100689.84;5052722;23;20221;-81
2022/01/14 03:42:22;;;;;;;0.40;0.30;;;;;;;7.21;52.24;100688.19;5050888;23;20226;-81
2022/01/14 03:45:50;;;;;;;0.53;0.17;;;;;;;7.18;52.29;100691.19;5034911;22;20236;-80
2022/01/14 03:48:38;;;;;;;0.10;0.10;;;;;;;7.30;50.84;100681.81;5095513;22;20236;-79
2022/01/14 03:51:30;;;;;;;0.17;0.10;;;;;;;7.40;49.95;100676.28;5047622;23;20225;-80
2022/01/14 03:54:12;;;;;;;0.53;0.20;;;;;;;7.37;49.48;100674.78;5065239;23;20232;-80
2022/01/14 03:56:50;;;;;;;0.20;0.20;;;;;;;7.53;49.17;100677.38;5065876;23;20210;-80
2022/01/14 03:59:18;;;;;;;0.20;0.10;;;;;;;7.61;48.82;100676.50;5046709;23;20217;-81
2022/01/14 04:01:47;;;;;;;0.30;0.30;;;;;;;7.46;49.29;100657.75;5069676;23;20229;-80
2022/01/14 04:04:22;;;;;;;0.93;0.17;;;;;;;7.73;48.31;100652.94;5074611;23;20225;-80
2022/01/14 04:07:24;;;;;;;0.30;0.30;;;;;;;7.74;47.77;100644.75;5070568;23;20233;-80
2022/01/14 04:10:13;;;;;;;0.87;0.20;;;;;;;8.00;46.66;100647.06;5060709;28;20244;-80
2022/01/14 04:15:49;;;;;;;0.20;0.20;;;;;;;7.96;45.40;100635.94;5161790;22;20267;-80
2022/01/14 04:18:28;;;;;;;0.20;0.20;;;;;;;8.16;44.98;100638.94;5049513;23;20237;-80
2022/01/14 04:21:03;;;;;;;0.10;0.10;;;;;;;8.22;44.77;100635.53;5049225;23;20242;-80
2022/01/14 04:23:43;;;;;;;0.10;0.10;;;;;;;8.07;45.30;100633.84;5021963;28;20280;-81
2022/01/14 04:26:15;;;;;;;0.20;0.20;;;;;;;8.03;45.04;100629.84;5052558;23;20229;-80
2022/01/14 04:29:10;;;;;;;0.10;0.10;;;;;;;8.08;44.62;100616.81;5073039;23;20229;-81
2022/01/14 04:32:02;;;;;;;0.60;0.27;;;;;;;7.94;45.20;100610.41;5050146;23;20221;-80
2022/01/14 04:34:51;;;;;;;0.40;0.20;;;;;;;7.87;44.96;100607.66;5051236;23;20283;-80
2022/01/14 04:37:35;;;;;;;0.20;0.20;;;;;;;8.07;45.15;100613.31;5079575;23;20288;-80
2022/01/14 04:40:18;;;;;;;0.33;0.20;;;;;;;7.91;45.44;100610.78;5064444;23;20247;-81
2022/01/14 04:42:45;;;;;;;0.40;0.20;;;;;;;7.86;45.51;100586.47;5091073;23;20241;-80
2022/01/14 04:48:49;;;;;;;0.40;0.20;;;;;;;7.87;46.22;100593.47;5063731;23;20269;-80
2022/01/14 04:51:21;;;;;;;0.30;0.20;;;;;;;7.92;46.84;100599.09;5047028;23;20213;-80
2022/01/14 04:54:08;;;;;;;0.10;0.10;;;;;;;7.95;46.58;100588.06;5072491;23;20230;-81
2022/01/14 04:57:02;;;;;;;0.30;0.20;;;;;;;8.14;46.02;100597.41;5043804;28;20520;-80
2022/01/14 04:59:29;;;;;;;0.20;0.20;;;;;;;8.17;46.64;100592.53;5056290;28;20186;-80
2022/01/14 05:02:27;;;;;;;0.20;0.20;;;;;;;8.10;46.62;100580.94;5050242;23;20450;-80
2022/01/14 05:06:11;;;;;;;0.20;0.20;;;;;;;7.91;47.95;100578.75;5002588;28;20230;-81
2022/01/14 05:09:23;;;;;;;0.13;0.10;;;;;;;8.02;48.07;100567.66;4997058;28;20315;-81
2022/01/14 05:12:43;;;;;;;0.20;0.20;;;;;;;7.90;48.66;100571.75;4985284;23;1449122;-81
2022/01/14 05:15:30;;;;;;;1.27;0.40;;;;;;;7.73;49.19;100568.41;5078319;23;20198;-80
2022/01/14 05:17:57;;;;;;;0.30;0.30;;;;;;;7.70;49.28;100562.59;5056383;23;20210;-80
2022/01/14 05:20:46;;;;;;;0.20;0.20;;;;;;;7.57;49.75;100571.16;5014064;23;20231;-80
2022/01/14 05:23:32;;;;;;;0.30;0.30;;;;;;;7.65;49.18;100567.63;5038514;23;20269;-80
2022/01/14 05:26:25;;;;;;;0.28;0.28;;;;;;;7.66;49.41;100577.28;5042557;23;20443;-80
2022/01/14 05:28:54;;;;;;;0.40;0.33;;;;;;;7.64;49.82;100576.63;5008044;23;20220;-80
2022/01/14 05:32:13;;;;;;;0.20;0.20;;;;;;;7.58;50.43;100586.19;5061608;23;20215;-78
2022/01/14 05:35:54;;;;;;;0.63;0.40;;;;;;;7.59;50.65;100581.69;5042714;23;20227;-80
2022/01/14 05:38:59;;;;;;;0.40;0.20;;;;;;;7.52;51.07;100582.38;5067354;23;20206;-79
2022/01/14 05:41:50;;;;;;;0.23;0.20;;;;;;;7.47;51.45;100579.41;5010269;23;20682;-81
2022/01/14 05:44:52;;;;;;;0.23;0.23;;;;;;;7.47;52.18;100582.06;5045143;23;20224;-81
2022/01/14 05:47:57;;;;;;;0.33;0.33;;;;;;;7.33;53.07;100569.50;5020530;28;20240;-81
2022/01/14 05:50:58;;;;;;;0.37;0.27;;;;;;;7.39;53.32;100571.47;5047566;23;20294;-81
2022/01/14 05:53:30;;;;;;;0.30;0.30;;;;;;;7.39;52.91;100565.28;5009646;23;20207;-81
2022/01/14 05:56:30;;;;;;;0.70;0.40;;;;;;;7.53;52.45;100562.72;5042068;23;20256;-80
2022/01/14 05:59:19;;;;;;;0.40;0.40;;;;;;;7.56;52.95;100572.16;5026095;23;20179;-80
2022/01/14 06:02:02;;;;;;;0.33;0.33;;;;;;;7.56;52.52;100564.16;5061608;23;20189;-79
2022/01/14 06:05:10;;;;;;;0.63;0.30;;;;;;;7.46;52.69;100566.28;5033055;23;20222;-81
2022/01/14 06:07:40;;;;;;;0.20;0.20;;;;;;;7.50;52.21;100560.41;5007838;28;20212;-81
2022/01/14 06:10:35;;;;;;;0.50;0.40;;;;;;;7.48;52.65;100558.91;5028596;28;20266;-81
2022/01/14 06:13:18;;;;;;;0.40;0.37;;;;;;;7.57;51.93;100565.84;5014479;28;20426;-80
2022/01/14 06:15:48;;;;;;;0.80;0.40;;;;;;;7.60;52.28;100562.00;5031441;28;20253;-80
2022/01/14 06:18:20;;;;;;;0.30;0.30;;;;;;;7.48;52.07;100564.25;5033012;28;20298;-81
2022/01/14 06:20:49;;;;;;;0.40;0.40;;;;;;;7.48;52.22;100557.06;5016354;28;20589;-81
2022/01/14 06:23:21;;;;;;;0.50;0.40;;;;;;;7.42;52.92;100546.28;5035237;23;20297;-81
2022/01/14 06:26:23;;;;;;;0.40;0.40;;;;;;;7.51;52.93;100553.22;4956110;29;20221;-81
2022/01/14 06:29:17;;;;;;;0.33;0.33;;;;;;;7.54;53.62;100539.53;5055873;23;20241;-80
2022/01/14 06:31:58;;;;;;;0.33;0.30;;;;;;;7.63;53.45;100561.63;5027683;23;20243;-80
2022/01/14 06:34:39;;;;;;;0.30;0.17;;;;;;;7.74;53.37;100555.91;5061851;23;20278;-80
2022/01/14 06:38:02;;;;;;;0.20;0.20;;;;;;;7.87;53.74;100559.63;5033799;23;20258;-81
2022/01/14 06:40:46;;;;;;;0.17;0.17;;;;;;;7.93;53.54;100561.53;4992912;28;20234;-81
2022/01/14 06:43:16;;;;;;;0.30;0.30;;;;;;;8.05;53.36;100551.28;5005992;28;20187;-81
2022/01/14 06:45:54;;;;;;;0.40;0.20;;;;;;;8.13;53.19;100559.22;4991824;28;20211;-81
2022/01/14 06:48:34;;;;;;;0.53;0.20;;;;;;;8.11;53.57;100549.75;4995359;28;20163;-80
2022/01/14 06:51:02;;;;;;;0.93;0.23;;;;;;;8.36;53.09;100551.16;4998145;28;20231;-80
2022/01/14 06:53:31;;;;;;;1.27;0.20;;;;;;;8.43;52.92;100564.63;5026270;23;20243;-81
2022/01/14 06:56:20;;;;;;;0.30;0.30;;;;;;;8.37;52.87;100568.84;5001853;23;20215;-80
2022/01/14 06:58:54;;;;;;;0.40;0.37;;;;;;;8.40;52.46;100571.16;5044408;23;20266;-81
2022/01/14 07:01:54;;;;;;;0.20;0.20;;;;;;;8.39;52.20;100557.00;5022185;28;20245;-80
2022/01/14 07:05:13;;;;;;;0.20;0.20;;;;;;;8.63;51.40;100565.75;5037060;28;20185;-81
2022/01/14 07:08:21;;;;;;;0.17;0.17;;;;;;;8.71;51.30;100554.97;5050378;23;20281;-81
2022/01/14 07:11:03;;;;;;;0.20;0.20;;;;;;;8.84;50.65;100560.47;5038091;23;20248;-80
2022/01/14 07:13:32;;;;;;;0.20;0.20;;;;;;;8.72;51.29;100564.66;5044466;23;20233;-80
2022/01/14 07:16:28;;;;;;;0.20;0.20;;;;;;;8.87;50.77;100575.31;5027056;23;20222;-81
2022/01/14 07:20:12;;;;;;;0.10;0.10;;;;;;;9.00;50.19;100575.50;4956818;29;20201;-81
2022/01/14 07:22:55;;;;;;;0.33;0.33;;;;;;;8.93;50.63;100569.22;4997510;23;20229;-80
2022/01/14 07:25:30;;;;;;;1.07;0.30;;;;;;;8.93;50.39;100553.19;5024177;28;20222;-81
2022/01/14 07:27:57;;;;;;;0.70;0.30;;;;;;;9.10;50.65;100568.00;5026426;28;20573;-81
2022/01/14 07:30:29;;;;;;;0.40;0.20;;;;;;;9.11;50.87;100570.47;5009972;23;20215;-80
2022/01/14 07:33:43;;;;;;;0.30;0.30;;;;;;;9.14;50.68;100580.81;5019571;23;20241;-81
2022/01/14 07:36:59;;;;;;;0.57;0.30;;;;;;;9.31;50.92;100570.72;5142416;23;20220;-77
2022/01/14 07:40:17;;;;;;;0.50;0.30;;;;;;;9.40;50.15;100569.59;5000966;23;20242;-80
2022/01/14 07:43:04;;;;;;;0.40;0.20;;;;;;;9.43;50.38;100561.19;5114823;23;20230;-80
2022/01/14 07:45:58;;;;;;;0.10;0.10;;;;;;;9.40;50.65;100566.09;5021040;23;20266;-80
2022/01/14 07:48:49;;;;;;;0.20;0.20;;;;;;;9.46;50.28;100562.66;5002241;28;20258;-81
2022/01/14 07:51:37;;;;;;;0.43;0.40;;;;;;;9.47;50.37;100559.78;5018810;28;20210;-80
2022/01/14 07:54:12;;;;;;;0.53;0.20;;;;;;;9.57;50.28;100552.28;5043893;23;20293;-80
2022/01/14 07:57:00;;;;;;;0.87;0.30;;;;;;;9.71;50.15;100542.53;5036624;23;20233;-80
2022/01/14 07:59:46;;;;;;;1.10;0.30;;;;;;;9.55;50.28;100519.53;4954464;28;20189;-80
2022/01/14 08:02:52;;;;;;;0.20;0.20;;;;;;;9.75;50.52;100540.31;5099656;23;20651;-80
2022/01/14 08:05:34;;;;;;;0.60;0.20;;;;;;;9.79;50.22;100536.22;5013982;28;20221;-80
2022/01/14 08:08:07;;;;;;;0.87;0.40;;;;;;;9.85;50.80;100530.09;5059242;23;20252;-80
2022/01/14 08:10:44;;;;;;;0.20;0.20;;;;;;;9.85;50.67;100522.06;5037325;23;20217;-80
2022/01/14 08:13:17;;;;;;;0.30;0.20;;;;;;;10.02;50.31;100529.63;5032827;23;20241;-80
2022/01/14 08:16:14;;;;;;;0.30;0.30;;;;;;;10.07;50.59;100531.72;5063892;23;20225;-80
2022/01/14 08:18:53;;;;;;;0.30;0.30;;;;;;;10.05;50.38;100536.44;5038091;23;20532;-79
2022/01/14 08:21:33;;;;;;;0.60;0.20;;;;;;;10.08;50.50;100536.88;4996688;28;20203;-80
2022/01/14 08:24:01;;;;;;;0.50;0.50;;;;;;;10.29;50.04;100532.53;5024987;23;20226;-80
2022/01/14 08:26:54;;;;;;;0.23;0.20;;;;;;;10.31;50.30;100541.22;5046545;23;20289;-79
2022/01/14 08:29:52;;;;;;;0.23;0.17;;;;;;;10.35;49.83;100553.19;5067056;23;20263;-80
2022/01/14 08:35:40;;;;;;;0.30;0.10;;;;;;;10.39;49.99;100560.63;4973755;28;20209;-80
2022/01/14 08:38:25;;;;;;;0.30;0.30;;;;;;;10.50;49.68;100562.75;5096924;23;20215;-79
2022/01/14 08:41:31;;;;;;;0.30;0.30;;;;;;;10.47;49.70;100565.81;5047717;23;20245;-80
2022/01/14 08:44:59;;;;;;;0.40;0.40;;;;;;;10.67;49.43;100574.00;5054878;23;20210;-80
2022/01/14 08:48:03;;;;;;;1.87;0.40;;;;;;;10.58;49.50;100569.81;5005529;23;20219;-80
2022/01/14 08:50:58;;;;;;;1.23;0.40;;;;;;;10.59;48.86;100550.03;5005369;23;20210;-80
2022/01/14 08:53:53;;;;;;;0.27;0.20;;;;;;;10.79;48.63;100572.41;5025995;23;20226;-80
2022/01/14 08:56:41;;;;;;;0.50;0.40;;;;;;;10.73;49.00;100577.75;5168513;23;20211;-79
2022/01/14 08:59:08;;;;;;;0.53;0.30;;;;;;;10.74;49.12;100568.66;5014931;23;20270;-80
2022/01/14 09:02:05;;;;;;;1.50;0.40;;;;;;;10.88;48.18;100573.06;5004008;28;20511;-80
2022/01/14 09:04:41;;;;;;;0.67;0.40;;;;;;;10.93;48.01;100567.94;5034335;23;20662;-80
2022/01/14 09:07:28;;;;;;;0.40;0.40;;;;;;;11.02;47.48;100548.78;5011183;23;20223;-80
2022/01/14 09:10:41;;;;;;;0.63;0.20;;;;;;;11.14;48.00;100575.06;5106441;23;20254;-79
2022/01/14 09:14:07;;;;;;;0.40;0.30;;;;;;;11.11;48.40;100573.56;5023503;23;20250;-79
2022/01/14 09:17:08;;;;;;;0.50;0.50;;;;;;;11.11;47.86;100556.66;5063420;23;20269;-79
2022/01/14 09:19:40;;;;;;;0.30;0.30;;;;;;;11.34;47.46;100557.16;5018522;23;20222;-79
2022/01/14 09:22:15;;;;;;;0.30;0.30;;;;;;;11.52;46.97;100562.81;5021842;23;20239;-79
2022/01/14 09:24:59;;;;;;;0.50;0.40;;;;;;;11.39;47.65;100560.06;5112012;23;20229;-79
2022/01/14 09:27:59;;;;;;;0.47;0.40;;;;;;;11.43;47.26;100562.13;5034699;23;20238;-79
2022/01/14 09:30:27;;;;;;;1.03;0.20;;;;;;;11.50;46.80;100559.47;4996935;23;20291;-79
2022/01/14 09:33:18;;;;;;;0.20;0.20;;;;;;;11.57;46.96;100562.19;5006152;23;20268;-79
2022/01/14 09:36:10;;;;;;;0.33;0.27;;;;;;;11.59;47.26;100549.38;5055244;28;20628;-79
2022/01/14 09:38:42;;;;;;;0.30;0.30;;;;;;;11.73;47.15;100534.97;5030487;23;20218;-79
2022/01/14 09:41:35;;;;;;;0.30;0.30;;;;;;;11.77;45.50;100558.53;5037412;23;20231;-79
2022/01/14 09:44:30;;;;;;;0.60;0.30;;;;;;;11.87;45.53;100563.50;5045529;23;20246;-79
2022/01/14 09:47:43;;;;;;;0.50;0.50;;;;;;;11.84;45.87;100558.53;5056471;23;20288;-79
2022/01/14 09:50:10;;;;;;;1.03;0.40;;;;;;;12.00;45.23;100554.59;5069357;23;20266;-80
2022/01/14 09:53:20;;;;;;;0.20;0.20;;;;;;;12.12;44.73;100540.38;5035311;23;20311;-79
2022/01/14 10:00:21;;;;;;;0.30;0.27;;;;;;;12.33;44.42;100526.69;4995243;28;20254;-79
2022/01/14 10:02:53;;;;;;;0.23;0.17;;;;;;;12.45;44.08;100524.22;5019290;23;20259;-79
2022/01/14 10:05:35;;;;;;;0.10;0.10;;;;;;;12.39;44.37;100524.22;5036126;23;20236;-79
2022/01/14 10:08:36;;;;;;;0.40;0.30;;;;;;;12.49;44.83;100517.38;5041915;23;20208;-79
2022/01/14 10:11:23;;;;;;;0.20;0.20;;;;;;;12.51;44.87;100523.34;5060063;23;20310;-78
2022/01/14 10:14:17;;;;;;;0.60;0.30;;;;;;;12.66;44.32;100509.66;5053131;23;20203;-79
2022/01/14 10:17:00;;;;;;;0.40;0.20;;;;;;;12.63;44.76;100500.16;5016771;28;20214;-79
2022/01/14 10:19:41;;;;;;;0.20;0.20;;;;;;;12.65;44.44;100487.31;5014139;23;20221;-79
2022/01/14 10:22:34;;;;;;;1.07;0.20;;;;;;;12.65;44.67;100479.25;5023890;23;20211;-79
2022/01/14 10:25:40;;;;;;;0.20;0.20;;;;;;;12.61;43.99;100472.66;5026311;23;20231;-78
2022/01/14 10:28:29;;;;;;;0.20;0.20;;;;;;;12.62;44.57;100463.56;5026291;23;20258;-78
2022/01/14 10:31:15;;;;;;;0.87;0.20;;;;;;;12.70;44.87;100462.47;5031497;23;20230;-79
2022/01/14 10:34:05;;;;;;;0.20;0.20;;;;;;;12.59;44.72;100439.81;5055617;23;20258;-77
2022/01/14 10:37:33;;;;;;;2.20;0.30;;;;;;;12.76;44.75;100480.47;5033301;28;20237;-79
2022/01/14 10:40:24;;;;;;;0.77;0.23;;;;;;;12.79;45.05;100467.41;5030743;28;20210;-79
2022/01/14 10:43:35;;;;;;;0.30;0.20;;;;;;;12.89;44.27;100460.75;5020955;28;20196;-79
2022/01/14 10:46:17;;;;;;;0.97;0.30;;;;;;;12.86;44.53;100459.31;5019296;28;20198;-78
2022/01/14 10:48:54;;;;;;;0.30;0.30;;;;;;;12.84;44.14;100439.03;5009941;28;20222;-80
2022/01/14 10:51:47;;;;;;;0.20;0.20;;;;;;;12.80;44.30;100455.63;5035237;28;20242;-79
2022/01/14 10:54:26;;;;;;;0.40;0.30;;;;;;;12.89;44.36;100447.31;5046636;23;21357;-78
2022/01/14 10:57:34;;;;;;;0.30;0.30;;;;;;;12.87;44.39;100449.41;5041754;23;20257;-79
2022/01/14 11:00:47;;;;;;;0.37;0.30;;;;;;;12.83;44.51;100426.66;5042219;23;20724;-78
2022/01/14 11:04:00;;;;;;;0.27;0.20;;;;;;;12.88;43.94;100434.91;5048291;23;20241;-79
2022/01/14 11:06:41;;;;;;;0.70;0.40;;;;;;;12.93;43.99;100417.06;5121747;23;20253;-79
2022/01/14 11:09:13;;;;;;;0.20;0.20;;;;;;;12.93;44.45;100403.63;5017936;28;20214;-79
2022/01/14 11:12:09;;;;;;;0.30;0.20;;;;;;;13.08;44.76;100424.84;5012324;23;20239;-78
2022/01/14 11:15:13;;;;;;;0.50;0.30;;;;;;;13.10;44.16;100412.03;5041074;23;20246;-78
2022/01/14 11:18:02;;;;;;;0.37;0.30;;;;;;;13.12;44.42;100410.78;5013169;23;20240;-79
2022/01/14 11:23:28;;;;;;;0.23;0.23;;;;;;;13.15;43.62;100401.47;5043252;23;20233;-79
2022/01/14 11:26:15;;;;;;;1.20;0.40;;;;;;;13.26;43.78;100408.81;5054953;23;20227;-79
2022/01/14 11:28:52;;;;;;;0.40;0.40;;;;;;;13.28;43.52;100389.78;5033198;23;20207;-78
2022/01/14 11:31:38;;;;;;;0.47;0.20;;;;;;;13.37;42.99;100399.22;5016524;23;20238;-78
2022/01/14 11:34:17;;;;;;;0.43;0.30;;;;;;;13.30;43.42;100393.88;5029446;23;20607;-78
2022/01/14 11:36:51;;;;;;;0.43;0.40;;;;;;;13.38;42.75;100385.56;5014878;28;20202;-79
2022/01/14 11:39:31;;;;;;;0.30;0.30;;;;;;;13.34;42.60;100395.13;5023928;23;20210;-80
2022/01/14 11:43:02;;;;;;;0.60;0.27;;;;;;;13.38;42.97;100374.78;5040179;23;20246;-79
2022/01/14 11:45:48;;;;;;;0.40;0.40;;;;;;;13.39;42.11;100370.25;5134847;23;20226;-78
2022/01/14 11:48:39;;;;;;;1.10;0.33;;;;;;;13.33;42.57;100366.53;5004305;23;20234;-79
2022/01/14 11:51:33;;;;;;;1.43;0.40;;;;;;;13.45;42.02;100364.78;5040519;23;20290;-78
2022/01/14 11:57:51;;;;;;;0.40;0.30;;;;;;;13.39;42.30;100356.78;5041427;23;20214;-78
2022/01/14 12:00:40;;;;;;;0.73;0.40;;;;;;;13.51;42.78;100352.31;5028751;23;20720;-78
2022/01/14 12:03:11;;;;;;;0.47;0.40;;;;;;;13.39;42.44;100352.19;5012207;23;20312;-79
2022/01/14 12:06:08;;;;;;;0.30;0.30;;;;;;;13.50;42.34;100345.28;5009310;28;20294;-79
2022/01/14 12:08:43;;;;;;;0.43;0.30;;;;;;;13.45;41.89;100339.72;5126449;23;20230;-79
2022/01/14 12:11:59;;;;;;;0.37;0.37;;;;;;;13.38;42.23;100334.41;5019303;28;20258;-79
2022/01/14 12:14:45;;;;;;;0.30;0.30;;;;;;;13.55;41.74;100340.03;5056824;23;20246;-79
2022/01/14 12:17:53;;;;;;;0.30;0.30;;;;;;;13.59;41.51;100330.47;5034099;28;20174;-79
2022/01/14 12:20:30;;;;;;;0.43;0.30;;;;;;;13.57;41.36;100317.25;5114222;23;20994;-79
2022/01/14 12:23:19;;;;;;;0.63;0.20;;;;;;;13.65;40.64;100314.28;5021073;28;20220;-80
2022/01/14 12:26:16;;;;;;;0.43;0.30;;;;;;;13.59;41.17;100312.47;5032590;23;20209;-79
2022/01/14 12:29:14;;;;;;;0.20;0.20;;;;;;;13.71;40.34;100307.19;5019114;28;20226;-79
2022/01/14 12:32:19;;;;;;;0.73;0.30;;;;;;;13.68;40.35;100305.72;5029250;28;20316;-79
2022/01/14 12:35:02;;;;;;;1.37;0.47;;;;;;;13.70;40.25;100305.53;4986718;28;20207;-79
2022/01/14 12:40:40;;;;;;;0.60;0.23;;;;;;;13.88;40.12;100296.63;5042085;23;20210;-80
2022/01/14 12:43:13;;;;;;;0.20;0.20;;;;;;;13.99;39.07;100283.22;5021506;28;20226;-79
2022/01/14 12:45:59;;;;;;;0.93;0.20;;;;;;;13.99;38.20;100277.84;5048378;23;20217;-78
2022/01/14 12:48:57;;;;;;;0.23;0.20;;;;;;;13.93;37.57;100288.69;4958529;28;20226;-79
2022/01/14 12:51:26;;;;;;;0.60;0.20;;;;;;;13.77;37.75;100260.47;4940098;28;20272;-79
2022/01/14 12:54:18;;;;;;;0.73;0.50;;;;;;;13.64;37.90;100263.31;4968181;23;20221;-80
2022/01/14 12:56:54;;;;;;;0.97;0.53;;;;;;;13.71;37.79;100276.72;4986469;23;20201;-78
2022/01/14 12:59:25;;;;;;;1.33;0.60;;;;;;;13.60;37.81;100260.25;4995060;28;20647;-79
2022/01/14 13:01:57;;;;;;;0.40;0.40;;;;;;;13.41;38.09;100257.78;4997988;23;20219;-78
2022/01/14 13:04:34;;;;;;;0.30;0.30;;;;;;;13.45;37.97;100259.78;5017662;23;20309;-79
2022/01/14 13:07:04;;;;;;;2.07;0.20;;;;;;;13.41;38.24;100253.22;5038414;28;20225;-79
2022/01/14 13:09:37;;;;;;;0.40;0.30;;;;;;;13.41;38.22;100260.47;5038067;28;20201;-79
2022/01/14 13:12:11;;;;;;;0.83;0.30;;;;;;;13.53;37.91;100256.81;5038848;28;20690;-78
2022/01/14 13:14:49;;;;;;;0.40;0.30;;;;;;;13.44;37.66;100243.84;5041888;28;20257;-79
2022/01/14 13:17:27;;;;;;;0.20;0.20;;;;;;;13.36;37.80;100245.00;5029165;28;20225;-78
2022/01/14 13:20:34;;;;;;;0.30;0.30;;;;;;;13.36;37.67;100255.75;4945967;29;20291;-80
2022/01/14 13:23:11;;;;;;;0.30;0.30;;;;;;;13.38;37.37;100252.84;4951088;29;20192;-78
2022/01/14 13:25:43;;;;;;;0.40;0.30;;;;;;;13.28;36.97;100244.47;4998428;23;20212;-79
2022/01/14 13:28:51;;;;;;;0.70;0.30;;;;;;;13.29;37.26;100248.81;5012986;28;20220;-79
2022/01/14 13:31:46;;;;;;;0.97;0.30;;;;;;;13.35;37.27;100242.50;5000173;28;20301;-79
2022/01/14 13:34:20;;;;;;;0.40;0.30;;;;;;;13.30;37.42;100240.47;5024731;28;20310;-80
2022/01/14 13:36:48;;;;;;;1.80;0.20;;;;;;;13.25;36.89;100229.56;4982325;28;20258;-79
2022/01/14 13:39:33;;;;;;;1.83;0.30;;;;;;;13.34;36.99;100224.75;4990325;28;20605;-80
2022/01/14 13:42:00;;;;;;;1.00;0.30;;;;;;;13.27;36.00;100226.66;4983333;28;20570;-80
2022/01/14 13:44:34;;;;;;;1.90;0.30;;;;;;;13.16;36.22;100218.28;4975310;28;20228;-80
2022/01/14 13:47:24;;;;;;;0.70;0.30;;;;;;;13.23;35.69;100232.50;5005997;28;20258;-80
2022/01/14 13:50:33;;;;;;;0.40;0.37;;;;;;;13.13;35.87;100209.81;5005604;28;20218;-80